createdAt,value
2022-10-02T00:01:49.189Z,85.55
2022-10-02T00:06:57.850Z,85.38
2022-10-02T00:12:05.510Z,85.25
2022-10-02T00:17:16.564Z,85.41
2022-10-02T00:22:32.108Z,86.43
2022-10-02T00:27:47.206Z,86.89
2022-10-02T00:33:05.057Z,85.93
2022-10-02T00:38:19.106Z,86.26
2022-10-02T00:43:30.533Z,86.26
2022-10-02T00:49:06.043Z,86.48
2022-10-02T00:54:19.385Z,86.36
2022-10-02T00:59:39.972Z,87.78
2022-10-02T01:04:43.253Z,87.00
2022-10-02T01:09:47.089Z,87.37
2022-10-02T01:14:51.325Z,87.63
2022-10-02T01:19:54.387Z,87.13
2022-10-02T01:25:00.187Z,87.72
2022-10-02T01:30:07.455Z,87.38
2022-10-02T01:35:10.949Z,87.13
2022-10-02T01:40:26.239Z,87.41
2022-10-02T01:45:44.920Z,87.90
2022-10-02T01:50:57.792Z,88.75
2022-10-02T01:56:07.079Z,88.89
2022-10-02T02:01:17.614Z,87.28
2022-10-02T02:06:27.868Z,89.52
2022-10-02T02:11:32.743Z,87.83
2022-10-02T02:16:42.417Z,89.04
2022-10-02T02:21:48.792Z,88.65
2022-10-02T02:26:56.645Z,88.50
2022-10-02T02:32:01.673Z,89.35
2022-10-02T02:37:09.473Z,88.56
2022-10-02T02:42:18.150Z,87.18
2022-10-02T02:47:25.455Z,86.67
2022-10-02T02:52:33.273Z,87.41
2022-10-02T02:57:44.808Z,87.60
2022-10-02T03:02:50.470Z,86.93
2022-10-02T03:07:56.174Z,86.10
2022-10-02T03:13:11.709Z,87.34
2022-10-02T03:18:26.221Z,87.58
2022-10-02T03:23:35.996Z,87.38
2022-10-02T03:28:55.393Z,87.75
2022-10-02T03:34:01.719Z,87.75
2022-10-02T03:44:31.717Z,88.38
2022-10-02T03:49:34.799Z,87.80
2022-10-02T03:54:38.261Z,89.05
2022-10-02T03:59:48.074Z,88.19
2022-10-02T04:04:56.228Z,88.24
2022-10-02T04:10:15.273Z,87.98
2022-10-02T04:15:24.376Z,90.73
2022-10-02T04:20:33.497Z,88.68
2022-10-02T04:25:43.806Z,89.30
2022-10-02T04:30:47.945Z,87.69
2022-10-02T04:36:03.019Z,87.71
2022-10-02T04:41:20.962Z,88.08
2022-10-02T04:46:45.983Z,88.20
2022-10-02T04:52:05.939Z,87.36
2022-10-02T04:57:25.552Z,88.40
2022-10-02T05:02:42.643Z,87.39
2022-10-02T05:08:09.890Z,86.58
2022-10-02T05:13:30.016Z,87.40
2022-10-02T05:18:53.042Z,87.64
2022-10-02T05:24:10.309Z,88.13
2022-10-02T05:29:31.861Z,88.83
2022-10-02T05:34:48.314Z,87.78
2022-10-02T05:40:00.194Z,87.70
2022-10-02T05:45:06.336Z,87.34
2022-10-02T05:50:17.930Z,87.82
2022-10-02T05:55:26.857Z,87.28
2022-10-02T06:00:37.265Z,88.16
2022-10-02T06:05:50.231Z,87.81
2022-10-02T06:10:57.866Z,87.38
2022-10-02T06:16:09.956Z,89.54
2022-10-02T06:21:25.122Z,87.61
2022-10-02T06:26:39.210Z,88.47
2022-10-02T06:31:47.128Z,86.29
2022-10-02T06:37:19.323Z,87.86
2022-10-02T06:42:33.622Z,86.48
2022-10-02T06:47:50.298Z,88.51
2022-10-02T06:53:03.727Z,87.18
2022-10-02T06:58:24.072Z,87.83
2022-10-02T07:04:13.921Z,85.76
2022-10-02T07:09:34.162Z,86.13
2022-10-02T07:14:56.003Z,85.28
2022-10-02T07:20:15.607Z,87.18
2022-10-02T07:25:40.845Z,86.17
2022-10-02T07:30:57.397Z,87.11
2022-10-02T07:36:07.541Z,85.64
2022-10-02T07:41:37.191Z,86.58
2022-10-02T07:46:49.772Z,83.39
2022-10-02T07:52:00.134Z,81.97
2022-10-02T07:57:18.680Z,82.78
2022-10-02T08:02:29.758Z,82.51
2022-10-02T08:07:33.110Z,81.84
2022-10-02T08:12:42.073Z,79.08
2022-10-02T08:17:49.929Z,78.95
2022-10-02T08:22:56.962Z,79.95
2022-10-02T08:28:04.619Z,75.92
2022-10-02T08:33:15.143Z,76.97
2022-10-02T08:38:35.570Z,75.37
2022-10-02T08:44:26.255Z,72.97
2022-10-02T08:50:07.631Z,72.90
2022-10-02T08:55:32.451Z,72.58
2022-10-02T09:00:46.704Z,71.53
2022-10-02T09:06:14.757Z,72.34
2022-10-02T09:12:02.790Z,72.47
2022-10-02T09:17:36.211Z,71.25
2022-10-02T09:23:13.137Z,70.43
2022-10-02T09:28:52.232Z,70.70
2022-10-02T09:34:19.316Z,71.08
2022-10-02T09:39:58.139Z,71.38
2022-10-02T09:45:51.417Z,68.94
2022-10-02T09:51:36.846Z,70.62
2022-10-02T09:57:01.957Z,67.37
2022-10-02T10:02:35.322Z,67.94
2022-10-02T10:08:19.191Z,66.99
2022-10-02T10:14:00.189Z,72.49
2022-10-02T10:19:45.340Z,79.39
2022-10-02T10:25:19.808Z,93.38
2022-10-02T10:30:45.073Z,94.78
2022-10-02T10:36:05.788Z,95.65
2022-10-02T10:41:43.895Z,90.43
2022-10-02T10:47:18.267Z,94.01
2022-10-02T10:52:36.959Z,100.00
2022-10-02T10:57:53.218Z,98.18
2022-10-02T11:03:27.773Z,78.93
2022-10-02T11:09:08.583Z,73.07
2022-10-02T11:14:27.494Z,68.24
2022-10-02T11:19:51.117Z,72.11
2022-10-02T11:25:12.858Z,62.50
2022-10-02T11:30:25.354Z,63.32
2022-10-02T11:35:38.357Z,63.91
2022-10-02T11:40:58.352Z,66.55
2022-10-02T11:46:23.725Z,65.23
2022-10-02T11:51:50.830Z,66.74
2022-10-02T11:57:19.487Z,61.30
2022-10-02T12:02:35.199Z,59.24
2022-10-02T12:07:48.033Z,58.58
2022-10-02T12:13:03.683Z,58.27
2022-10-02T12:18:22.947Z,55.02
2022-10-02T12:23:54.592Z,57.34
2022-10-02T12:29:02.351Z,54.20
2022-10-02T12:34:28.831Z,53.94
2022-10-02T12:39:45.436Z,56.46
2022-10-02T12:45:19.408Z,57.18
2022-10-02T12:50:40.557Z,57.38
2022-10-02T12:56:07.560Z,53.59
2022-10-02T13:01:39.024Z,50.01
2022-10-02T13:07:20.751Z,49.33
2022-10-02T13:12:38.926Z,47.95
2022-10-02T13:17:51.617Z,45.87
2022-10-02T13:23:08.957Z,50.32
2022-10-02T13:28:46.331Z,55.18
2022-10-02T13:34:07.597Z,61.13
2022-10-02T13:39:30.350Z,62.03
2022-10-02T13:44:38.804Z,59.61
2022-10-02T13:49:59.145Z,56.75
2022-10-02T13:55:20.053Z,57.06
2022-10-02T14:00:40.174Z,46.18
2022-10-02T14:05:47.529Z,45.00
2022-10-02T14:11:03.128Z,44.07
2022-10-02T14:16:21.574Z,44.39
2022-10-02T14:21:31.964Z,44.12
2022-10-02T14:26:55.171Z,45.67
2022-10-02T14:32:24.782Z,44.68
2022-10-02T14:37:43.449Z,45.12
2022-10-02T14:43:03.857Z,49.66
2022-10-02T14:48:24.598Z,55.04
2022-10-02T14:53:47.030Z,56.58
2022-10-02T14:59:04.644Z,58.28
2022-10-02T15:04:28.834Z,57.52
2022-10-02T15:09:40.716Z,69.46
2022-10-02T15:14:59.693Z,73.12
2022-10-02T15:20:12.093Z,71.53
2022-10-02T15:25:18.337Z,70.63
2022-10-02T15:30:25.522Z,68.58
2022-10-02T15:35:48.307Z,67.83
2022-10-02T15:47:38.146Z,64.79
2022-10-02T15:52:49.149Z,62.53
2022-10-02T15:58:12.026Z,59.67
2022-10-02T16:03:24.357Z,62.05
2022-10-02T16:08:57.980Z,62.40
2022-10-02T16:14:10.387Z,62.97
2022-10-02T16:19:28.387Z,61.87
2022-10-02T16:24:48.903Z,60.37
2022-10-02T16:30:13.295Z,62.16
2022-10-02T16:36:20.042Z,64.29
2022-10-02T16:41:36.986Z,63.18
2022-10-02T16:46:45.695Z,63.14
2022-10-02T16:51:57.023Z,63.25
2022-10-02T16:57:03.706Z,64.89
2022-10-02T17:02:19.462Z,65.44
2022-10-02T17:07:31.441Z,64.96
2022-10-02T17:12:45.128Z,65.48
2022-10-02T17:17:56.165Z,65.60
2022-10-02T17:23:06.760Z,66.33
2022-10-02T17:28:20.617Z,66.65
2022-10-02T17:33:27.100Z,67.52
2022-10-02T17:38:45.200Z,68.09
2022-10-02T17:43:58.774Z,68.41
2022-10-02T17:49:09.976Z,68.20
2022-10-02T17:54:51.012Z,68.16
2022-10-02T18:00:07.812Z,68.33
2022-10-02T18:05:28.728Z,68.24
2022-10-02T18:10:42.289Z,68.16
2022-10-02T18:16:15.863Z,68.39
2022-10-02T18:21:27.778Z,68.59
2022-10-02T18:26:45.829Z,68.71
2022-10-02T18:32:13.148Z,68.46
2022-10-02T18:37:35.686Z,68.56
2022-10-02T18:42:50.145Z,68.86
2022-10-02T18:48:04.577Z,68.92
2022-10-02T18:53:28.636Z,69.01
2022-10-02T18:58:50.263Z,68.96
2022-10-02T19:04:09.445Z,69.10
2022-10-02T19:09:21.364Z,69.23
2022-10-02T19:14:34.222Z,69.17
2022-10-02T19:19:37.029Z,69.39
2022-10-02T19:24:42.942Z,69.95
2022-10-02T19:29:49.762Z,69.56
2022-10-02T19:34:59.931Z,69.49
2022-10-02T19:40:04.736Z,69.62
2022-10-02T19:45:24.435Z,69.13
2022-10-02T19:50:40.599Z,69.72
2022-10-02T19:55:44.396Z,70.08
2022-10-02T20:00:50.727Z,69.50
2022-10-02T20:05:59.024Z,70.99
2022-10-02T20:11:07.909Z,70.15
2022-10-02T20:16:34.436Z,70.77
2022-10-02T20:21:40.218Z,70.87
2022-10-02T20:26:45.686Z,72.11
2022-10-02T20:31:54.819Z,71.30
2022-10-02T20:37:05.351Z,71.80
2022-10-02T20:42:14.353Z,73.38
2022-10-02T20:47:55.670Z,72.63
2022-10-02T20:53:33.480Z,72.20
2022-10-02T20:58:50.390Z,73.74
2022-10-02T21:04:29.839Z,73.23
2022-10-02T21:10:19.995Z,72.97
2022-10-02T21:15:51.844Z,74.70
2022-10-02T21:21:22.286Z,74.51
2022-10-02T21:26:55.202Z,73.55
2022-10-02T21:32:22.917Z,75.77
2022-10-02T21:37:41.294Z,75.64
2022-10-02T21:43:17.672Z,76.58
2022-10-02T21:48:58.228Z,75.80
2022-10-02T21:54:29.404Z,75.72
2022-10-02T22:00:09.274Z,76.53
2022-10-02T22:05:40.408Z,77.05
2022-10-02T22:10:56.314Z,77.94
2022-10-02T22:16:15.259Z,77.67
2022-10-02T22:21:49.614Z,78.07
2022-10-02T22:27:14.008Z,77.43
2022-10-02T22:32:56.313Z,77.81
2022-10-02T22:38:15.018Z,77.93
2022-10-02T22:43:25.669Z,77.32
2022-10-02T22:48:37.229Z,77.47
2022-10-02T22:53:46.250Z,77.77
2022-10-02T22:58:58.403Z,78.97
2022-10-02T23:04:06.632Z,79.96
2022-10-02T23:09:18.278Z,79.01
2022-10-02T23:14:29.863Z,79.80
2022-10-02T23:19:43.964Z,78.54
2022-10-02T23:24:52.703Z,79.32
2022-10-02T23:30:00.268Z,81.85
2022-10-02T23:35:10.737Z,80.38
2022-10-02T23:40:44.656Z,80.65
2022-10-02T23:45:57.086Z,80.77
2022-10-02T23:51:12.838Z,81.41
2022-10-02T23:56:40.208Z,82.01
